Metar z połowy godziny Komunikat METAR ze strony awiacja.imgw.pl Metar G30 EPSC METAR EPSC 200330Z 25009KT 9999 BKN019 OVC022 05/03 Q1014 =